Time;durP1;ratioP1;P1;durP2;ratioP2;P2;SDS_P1;SDS_P2;PMS_P1;PMS_P2;Temp;Humidity;BMP_temperature;BMP_pressure;BME280_temperature;BME280_humidity;BME280_pressure;Samples;Min_cycle;Max_cycle;Signal;HPM_P1;HPM_P2
2021/04/21 00:01:00;;;;;;;15.13;11.23;;;12.10;99.90;;;;;;5081386;28;20213;-71
2021/04/21 00:03:27;;;;;;;16.67;11.60;;;12.10;99.90;;;;;;5075826;28;20828;-71
2021/04/21 00:05:54;;;;;;;14.73;10.67;;;12.10;99.90;;;;;;5087460;28;20281;-71
2021/04/21 00:08:23;;;;;;;17.57;11.53;;;12.10;99.90;;;;;;5072572;28;20292;-71
2021/04/21 00:10:50;;;;;;;15.43;12.10;;;12.00;99.90;;;;;;5075027;28;20207;-71
2021/04/21 00:13:16;;;;;;;14.87;11.47;;;12.10;99.90;;;;;;5077605;28;20680;-73
2021/04/21 00:15:43;;;;;;;15.33;11.50;;;12.00;99.90;;;;;;5087078;28;20824;-71
2021/04/21 00:18:11;;;;;;;16.33;12.20;;;12.00;99.90;;;;;;5090939;28;20251;-71
2021/04/21 00:20:38;;;;;;;21.80;12.10;;;12.00;99.90;;;;;;5088302;28;20288;-71
2021/04/21 00:23:07;;;;;;;18.93;13.03;;;11.90;99.90;;;;;;5083665;28;20214;-70
2021/04/21 00:25:36;;;;;;;19.17;12.50;;;12.00;99.90;;;;;;5084124;28;20224;-71
2021/04/21 00:28:05;;;;;;;15.40;12.83;;;12.00;99.90;;;;;;5087154;28;20221;-71
2021/04/21 00:30:34;;;;;;;14.93;11.97;;;12.00;99.90;;;;;;5086176;28;20212;-72
2021/04/21 00:33:01;;;;;;;17.17;12.53;;;11.90;99.90;;;;;;5089510;28;20273;-71
2021/04/21 00:35:31;;;;;;;19.10;12.97;;;11.90;99.90;;;;;;5086966;28;20686;-72
2021/04/21 00:38:01;;;;;;;20.33;13.47;;;11.90;99.90;;;;;;5085770;28;20240;-72
2021/04/21 00:40:37;;;;;;;22.37;13.53;;;11.90;99.90;;;;;;5082216;28;20239;-71
2021/04/21 00:43:12;;;;;;;19.60;13.40;;;11.80;99.90;;;;;;5082682;28;20202;-72
2021/04/21 00:45:43;;;;;;;17.13;12.67;;;11.90;99.90;;;;;;5086721;28;20244;-72
2021/04/21 00:48:16;;;;;;;21.57;13.03;;;11.80;99.90;;;;;;5088395;28;20212;-72
2021/04/21 00:50:53;;;;;;;19.13;13.93;;;11.80;99.90;;;;;;5089451;28;20204;-72
2021/04/21 00:53:31;;;;;;;23.43;14.00;;;11.80;99.90;;;;;;5092034;28;20200;-71
2021/04/21 00:56:04;;;;;;;18.23;13.37;;;11.80;99.90;;;;;;5078676;28;20259;-71
2021/04/21 00:58:44;;;;;;;17.47;13.43;;;11.70;99.90;;;;;;5082612;28;20635;-71
2021/04/21 01:01:12;;;;;;;21.20;14.70;;;11.70;99.90;;;;;;5082195;28;20246;-71
2021/04/21 01:03:40;;;;;;;20.43;14.37;;;11.70;99.90;;;;;;5078093;28;20238;-71
2021/04/21 01:06:11;;;;;;;18.63;15.00;;;11.70;99.90;;;;;;5087028;28;20244;-72
2021/04/21 01:08:42;;;;;;;18.50;14.60;;;11.60;99.90;;;;;;5084943;28;20220;-71
2021/04/21 01:11:16;;;;;;;18.63;15.13;;;11.60;99.90;;;;;;5091870;28;20223;-72
2021/04/21 01:13:48;;;;;;;22.63;15.00;;;11.60;99.90;;;;;;5089342;28;20231;-73
2021/04/21 01:16:17;;;;;;;21.33;16.57;;;11.60;99.90;;;;;;5087163;28;20200;-73
2021/04/21 01:18:46;;;;;;;18.33;14.47;;;11.60;99.90;;;;;;5084764;28;20301;-73
2021/04/21 01:21:15;;;;;;;20.93;15.87;;;11.60;99.90;;;;;;5084808;28;20210;-71
2021/04/21 01:24:15;;;;;;;19.83;15.40;;;11.60;99.90;;;;;;5087138;28;20295;-72
2021/04/21 01:26:54;;;;;;;21.60;15.03;;;11.60;99.90;;;;;;5082084;28;20244;-72
2021/04/21 01:29:28;;;;;;;20.60;14.53;;;11.60;99.90;;;;;;5078659;28;20292;-73
2021/04/21 01:31:57;;;;;;;23.53;16.13;;;11.50;99.90;;;;;;5083041;28;20287;-73
2021/04/21 01:34:29;;;;;;;22.70;16.07;;;11.50;99.90;;;;;;5091046;28;20276;-71
2021/04/21 01:36:58;;;;;;;21.50;15.77;;;11.50;99.90;;;;;;5088011;28;20195;-72
2021/04/21 01:39:26;;;;;;;22.73;15.80;;;11.50;99.90;;;;;;5085753;28;20221;-72
2021/04/21 01:41:56;;;;;;;21.40;16.33;;;11.50;99.90;;;;;;5086112;28;20550;-72
2021/04/21 01:44:28;;;;;;;21.90;15.73;;;11.40;99.90;;;;;;5082884;28;20258;-71
2021/04/21 01:46:59;;;;;;;26.00;16.20;;;11.40;99.90;;;;;;5086711;28;20303;-73
2021/04/21 01:49:46;;;;;;;23.17;16.97;;;11.40;99.90;;;;;;5089236;28;20289;-70
2021/04/21 01:52:33;;;;;;;24.33;16.37;;;11.40;99.90;;;;;;5086393;28;20586;-72
2021/04/21 01:55:06;;;;;;;21.00;16.60;;;11.30;99.90;;;;;;5088273;28;20211;-72
2021/04/21 01:57:42;;;;;;;22.63;16.73;;;11.30;99.90;;;;;;5089205;28;20329;-73
2021/04/21 02:00:12;;;;;;;23.43;17.30;;;11.30;99.90;;;;;;5079900;28;20212;-70
2021/04/21 02:02:43;;;;;;;25.83;16.90;;;11.30;99.90;;;;;;5092226;28;20222;-72
2021/04/21 02:05:27;;;;;;;25.47;17.30;;;11.30;99.90;;;;;;5082246;28;20197;-71
2021/04/21 02:08:03;;;;;;;25.50;17.27;;;11.30;99.90;;;;;;5087534;28;20197;-71
2021/04/21 02:10:54;;;;;;;23.77;16.47;;;11.30;99.90;;;;;;5079833;28;20207;-72
2021/04/21 02:13:33;;;;;;;25.87;17.30;;;11.30;99.90;;;;;;5083728;28;20288;-71
2021/04/21 02:16:17;;;;;;;21.93;16.30;;;11.20;99.90;;;;;;5082112;28;20251;-73
2021/04/21 02:19:08;;;;;;;25.37;18.10;;;11.20;99.90;;;;;;5096436;28;20218;-72
2021/04/21 02:21:41;;;;;;;23.17;17.80;;;11.20;99.90;;;;;;5084117;28;20227;-71
2021/04/21 02:24:22;;;;;;;25.27;17.33;;;11.20;99.90;;;;;;5087186;28;20212;-72
2021/04/21 02:26:55;;;;;;;23.83;17.90;;;11.20;99.90;;;;;;5085785;28;20323;-71
2021/04/21 02:29:34;;;;;;;25.90;17.60;;;11.20;99.90;;;;;;5081950;28;20238;-73
2021/04/21 02:32:11;;;;;;;24.80;18.37;;;11.20;99.90;;;;;;5084884;28;20297;-73
2021/04/21 02:34:47;;;;;;;24.03;17.47;;;11.20;99.90;;;;;;5082047;28;20264;-71
2021/04/21 02:37:20;;;;;;;26.47;19.70;;;11.10;99.90;;;;;;5085251;28;20211;-72
2021/04/21 02:39:53;;;;;;;25.70;19.23;;;11.10;99.90;;;;;;5086944;28;20288;-72
2021/04/21 02:42:38;;;;;;;25.13;18.10;;;11.20;99.90;;;;;;5085898;28;20292;-72
2021/04/21 02:45:13;;;;;;;28.57;18.93;;;11.20;99.90;;;;;;5080608;28;20315;-72
2021/04/21 02:47:46;;;;;;;26.37;18.87;;;11.10;99.90;;;;;;5089019;28;20661;-72
2021/04/21 02:50:17;;;;;;;27.00;19.23;;;11.10;99.90;;;;;;5084750;28;20666;-71
2021/04/21 02:52:59;;;;;;;28.20;19.47;;;11.10;99.90;;;;;;5089677;28;20299;-71
2021/04/21 02:55:36;;;;;;;26.83;20.50;;;11.10;99.90;;;;;;5080272;28;20246;-72
2021/04/21 02:58:11;;;;;;;25.40;19.60;;;11.10;99.90;;;;;;5084099;28;20202;-72
2021/04/21 03:00:45;;;;;;;28.73;18.97;;;11.10;99.90;;;;;;5085478;28;20302;-72
2021/04/21 03:03:20;;;;;;;25.67;19.67;;;11.10;99.90;;;;;;5082852;28;20677;-72
2021/04/21 03:05:50;;;;;;;28.20;19.60;;;11.10;99.90;;;;;;5077542;28;20254;-72
2021/04/21 03:08:24;;;;;;;25.63;19.77;;;11.10;99.90;;;;;;5089860;28;20211;-72
2021/04/21 03:11:04;;;;;;;29.10;21.23;;;11.10;99.90;;;;;;5079865;28;20201;-73
2021/04/21 03:13:35;;;;;;;29.30;21.50;;;11.10;99.90;;;;;;5089429;28;20241;-71
2021/04/21 03:16:04;;;;;;;30.10;20.97;;;11.00;99.90;;;;;;5083871;28;20260;-71
2021/04/21 03:18:32;;;;;;;25.13;18.80;;;11.00;99.90;;;;;;5087261;28;20235;-71
2021/04/21 03:21:01;;;;;;;26.60;19.90;;;11.00;99.90;;;;;;5083009;28;20219;-72
2021/04/21 03:23:31;;;;;;;27.90;19.60;;;11.00;99.90;;;;;;5080273;28;20201;-71
2021/04/21 03:26:01;;;;;;;26.60;19.93;;;11.10;99.90;;;;;;5076167;28;20213;-72
2021/04/21 03:28:29;;;;;;;26.33;19.40;;;11.10;99.90;;;;;;5081235;28;20235;-72
2021/04/21 03:31:00;;;;;;;30.33;20.60;;;11.10;99.90;;;;;;5072449;28;20356;-73
2021/04/21 03:33:33;;;;;;;27.83;19.53;;;11.10;99.90;;;;;;5083771;28;20207;-72
2021/04/21 03:36:01;;;;;;;31.83;19.67;;;11.20;99.90;;;;;;5085319;28;20718;-72
2021/04/21 03:38:28;;;;;;;32.27;20.73;;;11.20;99.90;;;;;;5088093;28;20245;-71
2021/04/21 03:40:55;;;;;;;29.33;20.43;;;11.20;99.90;;;;;;5086933;28;20232;-71
2021/04/21 03:43:22;;;;;;;30.07;20.80;;;11.20;99.90;;;;;;5082328;28;20196;-71
2021/04/21 03:45:50;;;;;;;30.27;21.43;;;11.20;99.90;;;;;;5080994;28;20224;-71
2021/04/21 03:48:18;;;;;;;27.63;20.20;;;11.10;99.90;;;;;;5088401;28;20244;-71
2021/04/21 03:50:50;;;;;;;28.33;20.50;;;11.10;99.90;;;;;;5081121;28;20216;-72
2021/04/21 03:53:18;;;;;;;29.03;20.97;;;11.10;99.90;;;;;;5081547;28;20197;-72
2021/04/21 03:55:46;;;;;;;30.43;20.67;;;11.10;99.90;;;;;;5083957;28;20211;-73
2021/04/21 03:58:17;;;;;;;31.73;21.33;;;11.00;99.90;;;;;;5093995;28;20212;-72
2021/04/21 04:00:50;;;;;;;28.07;22.37;;;11.00;99.90;;;;;;5080114;28;20266;-72
2021/04/21 04:03:19;;;;;;;27.93;20.77;;;11.00;99.90;;;;;;5079806;28;20197;-73
2021/04/21 04:05:50;;;;;;;27.27;21.10;;;11.00;99.90;;;;;;5084170;28;20657;-72
2021/04/21 04:08:18;;;;;;;27.07;20.87;;;10.90;99.90;;;;;;5086392;28;20203;-72
2021/04/21 04:10:48;;;;;;;26.83;20.93;;;10.80;99.90;;;;;;5077377;28;20608;-73
2021/04/21 04:13:17;;;;;;;27.57;21.60;;;10.90;99.90;;;;;;5083902;28;20204;-72
2021/04/21 04:15:44;;;;;;;26.80;20.67;;;10.90;99.90;;;;;;5090340;28;20229;-71
2021/04/21 04:18:14;;;;;;;30.47;20.90;;;10.80;99.90;;;;;;5083844;28;20201;-72
2021/04/21 04:20:41;;;;;;;31.53;21.10;;;10.80;99.90;;;;;;5080168;28;20312;-73
2021/04/21 04:23:10;;;;;;;28.57;20.90;;;10.80;99.90;;;;;;5079236;28;20201;-70
2021/04/21 04:25:39;;;;;;;29.73;21.93;;;10.80;99.90;;;;;;5083649;28;20205;-71
2021/04/21 04:28:08;;;;;;;35.13;23.37;;;10.80;99.90;;;;;;5080272;28;20274;-72
2021/04/21 04:30:35;;;;;;;29.13;21.17;;;10.80;99.90;;;;;;5089059;28;20644;-73
2021/04/21 04:33:05;;;;;;;29.43;22.00;;;10.80;99.90;;;;;;5079713;28;20201;-72
2021/04/21 04:35:32;;;;;;;29.97;21.67;;;10.80;99.90;;;;;;5074882;28;20582;-71
2021/04/21 04:38:00;;;;;;;33.53;22.33;;;10.70;99.90;;;;;;5077173;28;20200;-72
2021/04/21 04:40:28;;;;;;;34.03;22.03;;;10.70;99.90;;;;;;5086957;28;20212;-71
2021/04/21 04:42:54;;;;;;;31.47;21.80;;;10.80;99.90;;;;;;5082179;28;20268;-72
2021/04/21 04:45:23;;;;;;;27.73;22.20;;;10.80;99.90;;;;;;5077916;28;20650;-72
2021/04/21 04:47:52;;;;;;;29.93;22.83;;;10.80;99.90;;;;;;5081859;28;20217;-73
2021/04/21 04:50:20;;;;;;;32.37;23.97;;;10.80;99.90;;;;;;5087987;28;20580;-73
2021/04/21 04:52:48;;;;;;;31.00;22.87;;;10.90;99.90;;;;;;5086379;28;20304;-72
2021/04/21 04:55:16;;;;;;;27.93;21.87;;;10.80;99.90;;;;;;5079797;28;20220;-71
2021/04/21 04:57:46;;;;;;;29.70;22.40;;;10.90;99.90;;;;;;5074038;28;20573;-72
2021/04/21 05:00:15;;;;;;;30.47;21.77;;;10.90;99.90;;;;;;5078492;28;20328;-72
2021/04/21 05:02:45;;;;;;;28.80;21.60;;;10.90;99.90;;;;;;5073960;28;20209;-73
2021/04/21 05:05:13;;;;;;;28.47;20.83;;;11.00;99.90;;;;;;5078711;28;20204;-72
2021/04/21 05:07:43;;;;;;;29.10;22.27;;;11.00;99.90;;;;;;5085166;28;20704;-71
2021/04/21 05:10:16;;;;;;;29.37;22.03;;;11.10;99.90;;;;;;5081681;28;20205;-72
2021/04/21 05:12:45;;;;;;;25.83;20.17;;;11.10;99.90;;;;;;5088586;28;20197;-72
2021/04/21 05:16:00;;;;;;;28.73;21.63;;;11.30;99.90;;;;;;5084260;28;20254;-72
2021/04/21 05:19:05;;;;;;;29.90;21.50;;;11.30;99.90;;;;;;5085228;28;20217;-73
2021/04/21 05:22:06;;;;;;;30.50;20.53;;;11.30;99.90;;;;;;5087256;28;20197;-73
2021/04/21 05:25:20;;;;;;;25.43;19.60;;;11.40;99.90;;;;;;5075958;28;20225;-71
2021/04/21 05:28:26;;;;;;;26.57;19.70;;;11.50;99.90;;;;;;5083937;28;20259;-72
2021/04/21 05:31:16;;;;;;;25.07;19.83;;;11.60;99.90;;;;;;5074779;28;20208;-71
2021/04/21 05:34:47;;;;;;;24.10;18.60;;;11.70;99.90;;;;;;5079900;28;20328;-72
2021/04/21 05:37:47;;;;;;;24.90;19.43;;;11.80;99.90;;;;;;5073364;28;20294;-70
2021/04/21 05:40:53;;;;;;;25.57;19.80;;;11.80;99.90;;;;;;5086810;28;20197;-72
2021/04/21 05:44:01;;;;;;;25.83;18.10;;;11.80;99.90;;;;;;5077643;28;20265;-71
2021/04/21 05:47:06;;;;;;;23.30;18.10;;;11.80;99.90;;;;;;5092100;28;20627;-71
2021/04/21 05:50:05;;;;;;;25.90;19.13;;;11.90;99.90;;;;;;5066797;28;20205;-72
2021/04/21 05:53:18;;;;;;;24.23;18.33;;;11.90;99.90;;;;;;5087936;28;20200;-72
2021/04/21 05:56:30;;;;;;;23.40;17.97;;;12.00;99.90;;;;;;5073433;28;20206;-72
2021/04/21 05:59:25;;;;;;;22.13;17.47;;;12.10;99.90;;;;;;5082985;28;20216;-72
2021/04/21 06:01:54;;;;;;;24.17;18.27;;;12.20;99.90;;;;;;5081637;28;20301;-72
2021/04/21 06:04:22;;;;;;;23.43;17.33;;;12.30;99.90;;;;;;5069935;28;20205;-72
2021/04/21 06:06:49;;;;;;;23.33;17.00;;;12.40;99.90;;;;;;5074036;28;20229;-74
2021/04/21 06:09:16;;;;;;;27.53;17.80;;;12.40;99.90;;;;;;5071360;28;20202;-73
2021/04/21 06:11:43;;;;;;;24.00;16.53;;;12.50;99.90;;;;;;5071203;28;20366;-73
2021/04/21 06:14:09;;;;;;;22.73;17.67;;;12.60;99.90;;;;;;5078750;28;20250;-73
2021/04/21 06:16:37;;;;;;;22.43;16.37;;;12.70;99.90;;;;;;5082601;28;20266;-72
2021/04/21 06:19:05;;;;;;;22.00;14.97;;;12.70;99.90;;;;;;5080979;28;20297;-75
2021/04/21 06:21:34;;;;;;;21.20;16.30;;;12.80;99.90;;;;;;5070999;28;20608;-73
2021/04/21 06:24:01;;;;;;;19.53;15.77;;;12.80;99.90;;;;;;5072663;28;20241;-71
2021/04/21 06:26:30;;;;;;;25.57;18.00;;;12.90;99.90;;;;;;5074995;28;20254;-71
2021/04/21 06:29:02;;;;;;;23.93;17.20;;;13.10;99.90;;;;;;5080230;28;20247;-72
2021/04/21 06:31:34;;;;;;;20.23;16.13;;;13.20;99.90;;;;;;5075972;28;20221;-71
2021/04/21 06:34:01;;;;;;;26.00;16.10;;;13.30;99.90;;;;;;5087174;28;20204;-72
2021/04/21 06:36:33;;;;;;;23.07;16.90;;;13.40;99.90;;;;;;5084668;28;20285;-73
2021/04/21 06:39:01;;;;;;;23.13;17.87;;;13.40;99.90;;;;;;5072476;28;20201;-72
2021/04/21 06:41:29;;;;;;;20.87;16.67;;;13.50;99.90;;;;;;5076457;28;20284;-72
2021/04/21 06:43:57;;;;;;;22.07;15.57;;;13.60;99.90;;;;;;5084158;28;20279;-72
2021/04/21 06:46:23;;;;;;;22.13;16.50;;;13.60;99.90;;;;;;5087029;28;20262;-72
2021/04/21 06:48:54;;;;;;;20.07;15.20;;;13.60;99.90;;;;;;5084354;28;20236;-73
2021/04/21 06:51:23;;;;;;;21.57;16.43;;;13.70;99.90;;;;;;5082651;28;20722;-73
2021/04/21 06:53:51;;;;;;;22.93;16.47;;;13.70;99.90;;;;;;5085614;28;20211;-71
2021/04/21 06:56:18;;;;;;;21.37;16.50;;;13.90;99.90;;;;;;5085525;28;20296;-70
2021/04/21 06:58:45;;;;;;;19.50;15.33;;;14.00;99.90;;;;;;5074913;28;20246;-71
2021/04/21 07:01:13;;;;;;;18.90;15.03;;;14.20;99.90;;;;;;5080628;28;20293;-72
2021/04/21 07:03:40;;;;;;;19.37;15.17;;;14.30;99.90;;;;;;5082818;28;20334;-71
2021/04/21 07:06:07;;;;;;;20.23;14.27;;;14.40;99.90;;;;;;5078694;28;20208;-73
2021/04/21 07:08:38;;;;;;;20.13;14.90;;;14.50;99.90;;;;;;5085708;28;20621;-72
2021/04/21 07:11:05;;;;;;;17.27;14.87;;;14.60;99.90;;;;;;5077626;28;20198;-71
2021/04/21 07:13:36;;;;;;;19.17;14.80;;;14.70;99.90;;;;;;5082011;28;20220;-73
2021/04/21 07:16:08;;;;;;;19.33;14.23;;;14.80;99.90;;;;;;5091230;28;20239;-72
2021/04/21 07:18:37;;;;;;;18.80;13.80;;;14.90;99.90;;;;;;5068419;28;20280;-73
2021/04/21 07:21:06;;;;;;;14.50;12.40;;;14.90;99.90;;;;;;5073057;28;20209;-73
2021/04/21 07:23:35;;;;;;;22.30;12.57;;;15.00;99.90;;;;;;5074985;28;20745;-73
2021/04/21 07:26:01;;;;;;;22.93;13.03;;;15.10;99.90;;;;;;5082724;28;20216;-73
2021/04/21 07:28:28;;;;;;;17.23;12.53;;;15.10;99.90;;;;;;5075723;28;20205;-74
2021/04/21 07:30:56;;;;;;;17.17;12.33;;;15.20;99.90;;;;;;5078155;28;21542;-73
2021/04/21 07:33:37;;;;;;;16.93;12.53;;;15.30;99.90;;;;;;5079183;28;20282;-75
2021/04/21 07:36:09;;;;;;;16.43;11.80;;;15.60;99.90;;;;;;5074128;28;20216;-75
2021/04/21 07:38:39;;;;;;;14.83;11.10;;;15.70;99.90;;;;;;5075536;28;20266;-74
2021/04/21 07:41:08;;;;;;;15.77;10.43;;;15.90;99.20;;;;;;5075193;28;20208;-74
2021/04/21 07:43:41;;;;;;;14.13;10.70;;;16.00;98.50;;;;;;5064370;28;20240;-74
2021/04/21 07:46:16;;;;;;;14.13;10.93;;;16.00;97.10;;;;;;5067569;28;20292;-73
2021/04/21 07:48:47;;;;;;;14.40;10.80;;;16.10;96.50;;;;;;5072641;28;20231;-75
2021/04/21 07:51:44;;;;;;;15.43;11.93;;;16.20;96.00;;;;;;5082980;28;20310;-72
2021/04/21 07:54:28;;;;;;;18.43;13.07;;;16.20;95.50;;;;;;5060434;28;20236;-74
2021/04/21 07:57:10;;;;;;;16.20;11.33;;;16.30;95.10;;;;;;5063167;28;20194;-73
2021/04/21 07:59:39;;;;;;;15.73;12.53;;;16.40;95.00;;;;;;5071316;28;20208;-73
2021/04/21 08:02:15;;;;;;;14.00;11.80;;;16.60;95.60;;;;;;5072927;28;20603;-74
2021/04/21 08:04:48;;;;;;;16.60;11.30;;;16.80;94.90;;;;;;5089256;28;20650;-74
2021/04/21 08:07:26;;;;;;;17.00;12.90;;;16.90;93.40;;;;;;5072536;28;20231;-75
2021/04/21 08:09:53;;;;;;;16.73;12.60;;;17.00;92.20;;;;;;5061878;28;20285;-74
2021/04/21 08:12:19;;;;;;;16.80;13.57;;;17.10;91.60;;;;;;5073344;28;20287;-75
2021/04/21 08:14:48;;;;;;;18.90;12.43;;;17.20;91.60;;;;;;5073360;28;20651;-74
2021/04/21 08:17:16;;;;;;;24.10;14.00;;;17.30;91.90;;;;;;5074102;28;20672;-75
2021/04/21 08:19:45;;;;;;;21.30;15.17;;;17.50;91.30;;;;;;5069559;28;20696;-75
2021/04/21 08:22:13;;;;;;;19.67;15.33;;;17.60;90.80;;;;;;5074715;28;20246;-74
2021/04/21 08:24:42;;;;;;;19.63;15.40;;;17.40;90.70;;;;;;5074769;28;20205;-75
2021/04/21 08:27:12;;;;;;;20.50;14.77;;;17.30;91.30;;;;;;5084739;28;20296;-73
2021/04/21 08:29:38;;;;;;;22.83;16.67;;;17.10;91.90;;;;;;5075441;28;20271;-71
2021/04/21 08:32:06;;;;;;;19.67;15.67;;;16.90;92.70;;;;;;5062800;28;20208;-71
2021/04/21 08:34:33;;;;;;;20.57;15.23;;;16.80;93.20;;;;;;5070602;28;20212;-71
2021/04/21 08:36:59;;;;;;;19.70;15.33;;;16.80;94.00;;;;;;5062306;28;20828;-71
2021/04/21 08:39:27;;;;;;;21.13;15.97;;;16.90;93.90;;;;;;5074800;28;21248;-70
2021/04/21 08:42:00;;;;;;;21.50;15.57;;;17.10;94.70;;;;;;5071296;28;20275;-72
2021/04/21 08:44:32;;;;;;;23.13;16.40;;;17.30;94.40;;;;;;5074242;28;20213;-71
2021/04/21 08:47:01;;;;;;;22.80;17.30;;;17.40;93.70;;;;;;5074332;28;20229;-71
2021/04/21 08:49:30;;;;;;;22.27;17.67;;;17.40;93.40;;;;;;5081871;28;20205;-71
2021/04/21 08:51:59;;;;;;;22.17;17.50;;;17.30;93.70;;;;;;5089596;28;20223;-72
2021/04/21 08:54:29;;;;;;;23.40;17.83;;;17.20;94.30;;;;;;5086176;28;20473;-70
2021/04/21 08:56:57;;;;;;;24.00;17.97;;;17.10;94.40;;;;;;5080100;28;20739;-71
2021/04/21 08:59:23;;;;;;;20.77;16.83;;;17.00;94.80;;;;;;5077512;28;20212;-72
2021/04/21 09:01:50;;;;;;;24.43;17.63;;;17.10;95.90;;;;;;5084410;28;20288;-71
2021/04/21 09:04:17;;;;;;;21.50;16.97;;;17.30;95.60;;;;;;5080002;28;20219;-72
2021/04/21 09:06:46;;;;;;;20.70;16.60;;;17.50;94.60;;;;;;5084423;28;20336;-71
2021/04/21 09:09:14;;;;;;;20.87;17.60;;;17.50;93.60;;;;;;5086302;28;20205;-73
2021/04/21 09:11:41;;;;;;;20.53;16.60;;;17.50;93.20;;;;;;5086326;28;20204;-72
2021/04/21 09:14:09;;;;;;;22.13;17.03;;;17.40;93.10;;;;;;5085190;28;20260;-72
2021/04/21 09:16:36;;;;;;;22.80;17.70;;;17.30;93.70;;;;;;5081745;28;20273;-72
2021/04/21 09:19:14;;;;;;;21.17;16.40;;;17.30;93.30;;;;;;5076705;28;20206;-71
2021/04/21 09:21:41;;;;;;;22.47;16.63;;;17.40;93.70;;;;;;5088290;28;20618;-71
2021/04/21 09:24:26;;;;;;;21.00;15.87;;;17.60;93.50;;;;;;5090646;28;20315;-71
2021/04/21 09:26:54;;;;;;;21.50;16.40;;;17.80;93.10;;;;;;5080793;28;20312;-72
2021/04/21 09:29:25;;;;;;;20.43;16.97;;;18.20;93.20;;;;;;5085512;28;20642;-71
2021/04/21 09:32:09;;;;;;;21.63;16.40;;;18.50;91.60;;;;;;5088742;28;20561;-70
2021/04/21 09:34:35;;;;;;;20.90;16.47;;;18.80;91.00;;;;;;5085782;28;20514;-72
2021/04/21 09:37:02;;;;;;;24.27;16.75;;;19.00;89.70;;;;;;5089877;28;20562;-71
2021/04/21 09:39:37;;;;;;;22.02;16.30;;;19.20;88.90;;;;;;5086070;28;20259;-72
2021/04/21 09:42:05;;;;;;;19.55;15.52;;;19.40;89.00;;;;;;5088901;28;20197;-71
2021/04/21 09:44:32;;;;;;;21.58;16.55;;;19.70;87.10;;;;;;5087996;28;20262;-71
2021/04/21 09:47:10;;;;;;;18.42;16.02;;;20.10;84.90;;;;;;5086184;28;20302;-72
2021/04/21 09:49:38;;;;;;;16.73;14.93;;;20.50;82.40;;;;;;5079291;28;20304;-70
2021/04/21 09:52:29;;;;;;;17.70;15.45;;;20.80;78.40;;;;;;5081885;28;20237;-72
2021/04/21 09:54:57;;;;;;;19.10;14.60;;;20.80;74.50;;;;;;5087202;28;20676;-71
2021/04/21 09:57:27;;;;;;;21.75;14.65;;;20.70;72.90;;;;;;5079437;28;20284;-72
2021/04/21 09:59:57;;;;;;;17.58;13.90;;;20.60;73.00;;;;;;5085795;28;20600;-70
2021/04/21 10:02:31;;;;;;;19.02;14.52;;;20.70;71.90;;;;;;5080641;28;20266;-71
2021/04/21 10:04:58;;;;;;;14.35;11.68;;;20.90;70.00;;;;;;5080530;28;20660;-71
2021/04/21 10:07:25;;;;;;;13.02;11.43;;;21.10;67.50;;;;;;5084962;28;20721;-69
2021/04/21 10:09:57;;;;;;;13.20;10.32;;;21.20;64.20;;;;;;5078066;28;20228;-69
2021/04/21 10:12:26;;;;;;;11.02;9.73;;;21.30;61.90;;;;;;5075852;28;20204;-68
2021/04/21 10:15:06;;;;;;;13.00;9.55;;;21.40;60.40;;;;;;5072907;28;20222;-69
2021/04/21 10:17:35;;;;;;;10.68;7.35;;;21.60;58.70;;;;;;5076132;28;20190;-69
2021/04/21 10:20:04;;;;;;;9.60;7.07;;;21.70;55.50;;;;;;5078046;28;20202;-67
2021/04/21 10:22:31;;;;;;;8.60;6.57;;;21.80;53.70;;;;;;5075057;28;20296;-69
2021/04/21 10:24:59;;;;;;;9.40;6.82;;;21.90;52.20;;;;;;5084584;28;20221;-70
2021/04/21 10:27:26;;;;;;;8.52;5.28;;;21.90;50.40;;;;;;5081440;28;20661;-69
2021/04/21 10:29:54;;;;;;;11.07;6.55;;;21.90;48.30;;;;;;5076841;28;20234;-72
2021/04/21 10:32:21;;;;;;;8.63;5.45;;;21.90;48.20;;;;;;5070064;28;20247;-69
2021/04/21 10:34:48;;;;;;;11.07;7.15;;;21.80;47.40;;;;;;5081974;28;20212;-68
2021/04/21 10:37:16;;;;;;;13.32;6.88;;;21.90;48.30;;;;;;5086624;28;20220;-72
2021/04/21 10:39:45;;;;;;;9.75;7.40;;;21.90;48.30;;;;;;5083024;28;20576;-69
2021/04/21 10:42:15;;;;;;;12.82;8.45;;;21.90;48.90;;;;;;5078923;28;20643;-69
2021/04/21 10:44:44;;;;;;;12.73;8.57;;;21.80;48.90;;;;;;5072577;28;20208;-74
2021/04/21 10:47:12;;;;;;;12.65;8.68;;;21.70;50.30;;;;;;5081798;28;20237;-72
2021/04/21 10:49:50;;;;;;;14.23;7.97;;;21.70;50.30;;;;;;5075221;28;20216;-72
2021/04/21 10:52:19;;;;;;;11.57;7.93;;;21.90;50.70;;;;;;5083998;28;20224;-73
2021/04/21 10:54:47;;;;;;;10.88;8.00;;;22.20;50.90;;;;;;5076951;28;20292;-72
2021/04/21 10:57:35;;;;;;;10.50;7.82;;;22.40;49.20;;;;;;5079786;28;20205;-72
2021/04/21 11:00:27;;;;;;;11.88;6.93;;;22.50;48.70;;;;;;5078652;28;20618;-73
2021/04/21 11:03:04;;;;;;;9.10;6.43;;;22.60;48.90;;;;;;5092479;28;20669;-73
2021/04/21 11:05:51;;;;;;;9.80;5.75;;;22.70;47.30;;;;;;5078668;28;20668;-73
2021/04/21 11:08:20;;;;;;;8.38;5.60;;;22.60;46.30;;;;;;5089055;28;20254;-73
2021/04/21 11:10:55;;;;;;;11.38;5.38;;;22.40;45.50;;;;;;5084713;28;20208;-73
2021/04/21 11:13:47;;;;;;;9.35;5.25;;;22.40;45.40;;;;;;5086864;28;20231;-72
2021/04/21 11:16:41;;;;;;;7.07;4.82;;;22.40;45.80;;;;;;5063082;28;20292;-72
2021/04/21 11:19:30;;;;;;;8.02;4.57;;;22.50;44.70;;;;;;5083908;28;20210;-73
2021/04/21 11:22:28;;;;;;;9.10;4.82;;;22.40;44.50;;;;;;5083547;28;20204;-72
2021/04/21 11:25:27;;;;;;;5.95;4.30;;;22.30;44.30;;;;;;5053848;28;20202;-70
2021/04/21 11:27:55;;;;;;;6.28;4.60;;;22.30;44.80;;;;;;5086266;28;20219;-71
2021/04/21 11:30:55;;;;;;;7.20;4.15;;;22.30;44.00;;;;;;5080794;28;20265;-71
2021/04/21 11:33:56;;;;;;;7.30;4.38;;;22.30;44.10;;;;;;5060254;28;20201;-69
2021/04/21 11:36:46;;;;;;;9.00;4.80;;;22.40;44.10;;;;;;5059611;28;20722;-71
2021/04/21 11:39:14;;;;;;;5.90;3.90;;;22.40;44.10;;;;;;5066016;28;20198;-71
2021/04/21 11:41:46;;;;;;;6.88;4.20;;;22.50;43.70;;;;;;5069854;28;20286;-72
2021/04/21 11:44:46;;;;;;;7.72;3.88;;;22.60;43.20;;;;;;5070204;28;20210;-70
2021/04/21 11:47:28;;;;;;;5.40;4.30;;;22.70;43.30;;;;;;5064548;28;20324;-69
2021/04/21 11:50:27;;;;;;;8.18;4.35;;;22.60;43.70;;;;;;5067756;28;22180;-70
2021/04/21 11:53:12;;;;;;;8.60;4.78;;;22.60;43.40;;;;;;5067627;28;20609;-72
2021/04/21 11:55:41;;;;;;;5.38;4.18;;;22.50;43.20;;;;;;5068457;28;20204;-73
2021/04/21 11:58:10;;;;;;;6.65;4.10;;;22.30;43.70;;;;;;5066734;28;20237;-71
2021/04/21 12:00:39;;;;;;;7.18;4.13;;;22.30;44.20;;;;;;5066873;28;20213;-71
2021/04/21 12:03:14;;;;;;;9.65;4.18;;;22.20;44.00;;;;;;5078239;28;20208;-70
2021/04/21 12:05:42;;;;;;;8.57;4.90;;;22.30;44.80;;;;;;5087020;28;20250;-71
2021/04/21 12:08:09;;;;;;;7.80;4.68;;;22.30;44.40;;;;;;5075602;28;20391;-71
2021/04/21 12:10:38;;;;;;;6.38;4.15;;;22.40;44.10;;;;;;5082133;28;20208;-72
2021/04/21 12:13:18;;;;;;;5.72;4.03;;;22.40;44.20;;;;;;5076649;28;20212;-67
2021/04/21 12:15:46;;;;;;;6.85;4.28;;;22.70;44.50;;;;;;5071456;28;20276;-71
2021/04/21 12:18:21;;;;;;;9.05;5.28;;;22.90;43.50;;;;;;5083317;28;20312;-68
2021/04/21 12:20:49;;;;;;;6.10;4.60;;;22.90;42.80;;;;;;5084627;28;20287;-70
2021/04/21 12:23:26;;;;;;;5.93;4.40;;;22.70;42.70;;;;;;5082809;28;20393;-68
2021/04/21 12:25:52;;;;;;;8.75;4.60;;;22.50;42.70;;;;;;5088409;28;20192;-70
2021/04/21 12:28:19;;;;;;;6.25;4.45;;;22.50;42.90;;;;;;5088022;28;20319;-70
2021/04/21 12:30:53;;;;;;;8.95;5.40;;;22.50;43.40;;;;;;5078614;28;20643;-73
2021/04/21 12:33:22;;;;;;;7.63;4.60;;;22.60;43.40;;;;;;5081921;28;20231;-73
2021/04/21 12:35:54;;;;;;;8.73;4.70;;;22.60;43.40;;;;;;5087762;28;20208;-70
2021/04/21 12:38:28;;;;;;;9.52;4.97;;;22.70;43.00;;;;;;5074922;28;20209;-71
2021/04/21 12:40:55;;;;;;;8.00;4.20;;;22.60;42.70;;;;;;5085200;28;20196;-72
2021/04/21 12:43:27;;;;;;;6.40;5.25;;;22.50;42.80;;;;;;5073695;28;20296;-72
2021/04/21 12:45:54;;;;;;;8.13;4.55;;;22.50;42.90;;;;;;5083549;28;20287;-70
2021/04/21 12:48:25;;;;;;;10.23;5.10;;;22.50;43.10;;;;;;5086669;28;20334;-72
2021/04/21 12:50:54;;;;;;;6.95;4.65;;;22.50;43.30;;;;;;5085049;28;20331;-72
2021/04/21 12:53:22;;;;;;;4.90;4.15;;;22.60;43.50;;;;;;5089525;28;20320;-71
2021/04/21 12:55:49;;;;;;;8.15;4.45;;;22.70;43.50;;;;;;5080635;28;20602;-72
2021/04/21 12:58:35;;;;;;;7.20;4.43;;;22.60;43.30;;;;;;5081973;28;20707;-71
2021/04/21 13:01:16;;;;;;;6.53;4.70;;;22.60;43.30;;;;;;5077386;28;20197;-71
2021/04/21 13:04:00;;;;;;;6.38;4.50;;;22.60;43.00;;;;;;5076158;28;20197;-70